sensor_id;sensor_type;location;lat;lon;timestamp;temperature;humidity
64997;SHT31;51545;51.568;6.998;2023-03-31T00:00:34;11.19;90.65
64997;SHT31;51545;51.568;6.998;2023-03-31T00:03:00;11.19;90.68
64997;SHT31;51545;51.568;6.998;2023-03-31T00:05:27;11.19;90.54
64997;SHT31;51545;51.568;6.998;2023-03-31T00:07:55;11.18;90.55
64997;SHT31;51545;51.568;6.998;2023-03-31T00:10:34;11.19;90.60
64997;SHT31;51545;51.568;6.998;2023-03-31T00:13:00;11.15;90.61
64997;SHT31;51545;51.568;6.998;2023-03-31T00:15:26;11.14;90.75
64997;SHT31;51545;51.568;6.998;2023-03-31T00:17:52;11.19;90.39
64997;SHT31;51545;51.568;6.998;2023-03-31T00:20:18;11.19;90.31
64997;SHT31;51545;51.568;6.998;2023-03-31T00:22:44;11.23;89.97
64997;SHT31;51545;51.568;6.998;2023-03-31T00:25:14;11.21;90.18
64997;SHT31;51545;51.568;6.998;2023-03-31T00:27:41;11.18;90.09
64997;SHT31;51545;51.568;6.998;2023-03-31T00:30:08;11.15;90.24
64997;SHT31;51545;51.568;6.998;2023-03-31T00:32:34;11.19;90.11
64997;SHT31;51545;51.568;6.998;2023-03-31T00:35:00;11.12;90.22
64997;SHT31;51545;51.568;6.998;2023-03-31T00:37:26;11.12;89.99
64997;SHT31;51545;51.568;6.998;2023-03-31T00:39:53;11.16;90.03
64997;SHT31;51545;51.568;6.998;2023-03-31T00:42:19;11.10;90.19
64997;SHT31;51545;51.568;6.998;2023-03-31T00:47:39;11.15;89.79
64997;SHT31;51545;51.568;6.998;2023-03-31T00:50:23;11.15;89.73
64997;SHT31;51545;51.568;6.998;2023-03-31T00:52:54;11.21;89.65
64997;SHT31;51545;51.568;6.998;2023-03-31T00:55:33;11.31;88.85
64997;SHT31;51545;51.568;6.998;2023-03-31T00:58:04;11.31;89.34
64997;SHT31;51545;51.568;6.998;2023-03-31T01:00:31;11.26;89.37
64997;SHT31;51545;51.568;6.998;2023-03-31T01:02:58;11.23;89.68
64997;SHT31;51545;51.568;6.998;2023-03-31T01:05:37;11.26;89.48
64997;SHT31;51545;51.568;6.998;2023-03-31T01:08:08;11.23;89.79
64997;SHT31;51545;51.568;6.998;2023-03-31T01:10:36;11.22;90.21
64997;SHT31;51545;51.568;6.998;2023-03-31T01:13:05;11.18;90.60
64997;SHT31;51545;51.568;6.998;2023-03-31T01:15:33;11.11;91.88
64997;SHT31;51545;51.568;6.998;2023-03-31T01:17:59;11.01;92.46
64997;SHT31;51545;51.568;6.998;2023-03-31T01:23:27;10.80;94.12
64997;SHT31;51545;51.568;6.998;2023-03-31T01:43:14;10.36;97.83
64997;SHT31;51545;51.568;6.998;2023-03-31T01:46:00;10.28;98.39
64997;SHT31;51545;51.568;6.998;2023-03-31T01:51:35;10.24;98.97
64997;SHT31;51545;51.568;6.998;2023-03-31T01:59:42;10.24;99.17
64997;SHT31;51545;51.568;6.998;2023-03-31T02:02:28;10.25;99.35
64997;SHT31;51545;51.568;6.998;2023-03-31T02:05:01;10.26;99.16
64997;SHT31;51545;51.568;6.998;2023-03-31T02:07:36;10.29;99.25
64997;SHT31;51545;51.568;6.998;2023-03-31T02:10:07;10.24;99.05
64997;SHT31;51545;51.568;6.998;2023-03-31T02:12:35;10.31;99.20
64997;SHT31;51545;51.568;6.998;2023-03-31T02:15:04;10.25;99.04
64997;SHT31;51545;51.568;6.998;2023-03-31T02:17:33;10.33;99.15
64997;SHT31;51545;51.568;6.998;2023-03-31T02:20:08;10.36;99.02
64997;SHT31;51545;51.568;6.998;2023-03-31T02:22:37;10.38;99.14
64997;SHT31;51545;51.568;6.998;2023-03-31T02:25:06;10.36;98.98
64997;SHT31;51545;51.568;6.998;2023-03-31T02:27:35;10.33;98.79
64997;SHT31;51545;51.568;6.998;2023-03-31T02:30:04;10.38;98.44
64997;SHT31;51545;51.568;6.998;2023-03-31T02:32:36;10.42;98.62
64997;SHT31;51545;51.568;6.998;2023-03-31T02:35:03;10.39;98.60
64997;SHT31;51545;51.568;6.998;2023-03-31T02:37:31;10.40;98.63
64997;SHT31;51545;51.568;6.998;2023-03-31T02:39:58;10.43;98.23
64997;SHT31;51545;51.568;6.998;2023-03-31T02:42:28;10.46;98.04
64997;SHT31;51545;51.568;6.998;2023-03-31T02:45:00;10.46;98.14
64997;SHT31;51545;51.568;6.998;2023-03-31T02:47:27;10.48;98.19
64997;SHT31;51545;51.568;6.998;2023-03-31T02:49:54;10.50;98.03
64997;SHT31;51545;51.568;6.998;2023-03-31T02:55:48;10.53;98.24
64997;SHT31;51545;51.568;6.998;2023-03-31T02:58:59;10.56;98.41
64997;SHT31;51545;51.568;6.998;2023-03-31T03:01:38;10.53;98.35
64997;SHT31;51545;51.568;6.998;2023-03-31T03:12:54;10.57;98.39
64997;SHT31;51545;51.568;6.998;2023-03-31T03:15:43;10.62;97.94
64997;SHT31;51545;51.568;6.998;2023-03-31T03:18:10;10.60;98.11
64997;SHT31;51545;51.568;6.998;2023-03-31T03:20:36;10.59;98.19
64997;SHT31;51545;51.568;6.998;2023-03-31T03:23:03;10.57;98.32
64997;SHT31;51545;51.568;6.998;2023-03-31T03:25:28;10.59;98.28
64997;SHT31;51545;51.568;6.998;2023-03-31T03:27:54;10.59;98.36
64997;SHT31;51545;51.568;6.998;2023-03-31T03:30:20;10.56;98.31
64997;SHT31;51545;51.568;6.998;2023-03-31T03:32:46;10.60;98.35
64997;SHT31;51545;51.568;6.998;2023-03-31T03:35:11;10.62;98.29
64997;SHT31;51545;51.568;6.998;2023-03-31T03:37:37;10.62;98.33
64997;SHT31;51545;51.568;6.998;2023-03-31T03:40:03;10.59;98.48
64997;SHT31;51545;51.568;6.998;2023-03-31T03:42:32;10.60;98.46
64997;SHT31;51545;51.568;6.998;2023-03-31T03:44:58;10.60;98.56
64997;SHT31;51545;51.568;6.998;2023-03-31T03:47:25;10.53;98.68
64997;SHT31;51545;51.568;6.998;2023-03-31T03:49:51;10.56;98.82
64997;SHT31;51545;51.568;6.998;2023-03-31T03:52:16;10.53;98.98
64997;SHT31;51545;51.568;6.998;2023-03-31T03:54:42;10.53;99.02
64997;SHT31;51545;51.568;6.998;2023-03-31T03:57:07;10.45;99.06
64997;SHT31;51545;51.568;6.998;2023-03-31T03:59:32;10.48;99.03
64997;SHT31;51545;51.568;6.998;2023-03-31T04:01:58;10.46;98.98
64997;SHT31;51545;51.568;6.998;2023-03-31T04:04:23;10.46;99.05
64997;SHT31;51545;51.568;6.998;2023-03-31T04:06:49;10.49;99.00
64997;SHT31;51545;51.568;6.998;2023-03-31T04:09:15;10.48;98.99
64997;SHT31;51545;51.568;6.998;2023-03-31T04:11:40;10.48;98.94
64997;SHT31;51545;51.568;6.998;2023-03-31T04:14:06;10.45;98.90
64997;SHT31;51545;51.568;6.998;2023-03-31T04:16:31;10.46;98.88
64997;SHT31;51545;51.568;6.998;2023-03-31T04:18:58;10.46;98.81
64997;SHT31;51545;51.568;6.998;2023-03-31T04:21:28;10.46;98.90
64997;SHT31;51545;51.568;6.998;2023-03-31T04:23:55;10.43;99.01
64997;SHT31;51545;51.568;6.998;2023-03-31T04:26:26;10.42;99.05
64997;SHT31;51545;51.568;6.998;2023-03-31T04:29:05;10.48;98.81
64997;SHT31;51545;51.568;6.998;2023-03-31T04:31:31;10.43;98.87
64997;SHT31;51545;51.568;6.998;2023-03-31T04:33:58;10.46;98.57
64997;SHT31;51545;51.568;6.998;2023-03-31T04:36:27;10.48;98.35
64997;SHT31;51545;51.568;6.998;2023-03-31T04:38:55;10.49;98.14
64997;SHT31;51545;51.568;6.998;2023-03-31T04:41:21;10.50;98.49
64997;SHT31;51545;51.568;6.998;2023-03-31T04:43:47;10.43;98.51
64997;SHT31;51545;51.568;6.998;2023-03-31T04:46:13;10.45;98.33
64997;SHT31;51545;51.568;6.998;2023-03-31T04:48:39;10.39;98.52
64997;SHT31;51545;51.568;6.998;2023-03-31T04:51:05;10.39;98.51
64997;SHT31;51545;51.568;6.998;2023-03-31T04:53:31;10.45;97.81
64997;SHT31;51545;51.568;6.998;2023-03-31T04:55:57;10.49;97.52
64997;SHT31;51545;51.568;6.998;2023-03-31T04:58:22;10.48;97.89
64997;SHT31;51545;51.568;6.998;2023-03-31T05:00:48;10.43;98.00
64997;SHT31;51545;51.568;6.998;2023-03-31T05:03:13;10.42;98.44
64997;SHT31;51545;51.568;6.998;2023-03-31T05:05:38;10.38;97.90
64997;SHT31;51545;51.568;6.998;2023-03-31T05:08:04;10.45;97.62
64997;SHT31;51545;51.568;6.998;2023-03-31T05:10:30;10.45;97.40
64997;SHT31;51545;51.568;6.998;2023-03-31T05:12:55;10.43;97.18
64997;SHT31;51545;51.568;6.998;2023-03-31T05:15:21;10.45;97.22
64997;SHT31;51545;51.568;6.998;2023-03-31T05:17:48;10.39;97.13
64997;SHT31;51545;51.568;6.998;2023-03-31T05:20:15;10.36;96.89
64997;SHT31;51545;51.568;6.998;2023-03-31T05:22:41;10.29;97.10
64997;SHT31;51545;51.568;6.998;2023-03-31T05:25:07;10.28;96.76
64997;SHT31;51545;51.568;6.998;2023-03-31T05:27:35;10.24;97.02
64997;SHT31;51545;51.568;6.998;2023-03-31T05:30:02;10.24;96.89
64997;SHT31;51545;51.568;6.998;2023-03-31T05:32:28;10.22;96.94
64997;SHT31;51545;51.568;6.998;2023-03-31T05:34:54;10.28;96.11
64997;SHT31;51545;51.568;6.998;2023-03-31T05:37:23;10.28;96.55
64997;SHT31;51545;51.568;6.998;2023-03-31T05:39:50;10.28;96.45
64997;SHT31;51545;51.568;6.998;2023-03-31T05:42:16;10.25;96.29
64997;SHT31;51545;51.568;6.998;2023-03-31T05:44:41;10.28;96.73
64997;SHT31;51545;51.568;6.998;2023-03-31T05:47:07;10.31;96.44
64997;SHT31;51545;51.568;6.998;2023-03-31T05:49:32;10.32;96.35
64997;SHT31;51545;51.568;6.998;2023-03-31T05:51:58;10.33;96.24
64997;SHT31;51545;51.568;6.998;2023-03-31T05:54:24;10.31;96.31
64997;SHT31;51545;51.568;6.998;2023-03-31T05:56:50;10.33;96.56
64997;SHT31;51545;51.568;6.998;2023-03-31T05:59:16;10.32;96.12
64997;SHT31;51545;51.568;6.998;2023-03-31T06:01:42;10.38;95.72
64997;SHT31;51545;51.568;6.998;2023-03-31T06:04:07;10.45;95.91
64997;SHT31;51545;51.568;6.998;2023-03-31T06:06:33;10.45;95.68
64997;SHT31;51545;51.568;6.998;2023-03-31T06:08:58;10.52;95.11
64997;SHT31;51545;51.568;6.998;2023-03-31T06:11:24;10.53;94.76
64997;SHT31;51545;51.568;6.998;2023-03-31T06:13:50;10.65;93.41
64997;SHT31;51545;51.568;6.998;2023-03-31T06:16:16;10.69;93.79
64997;SHT31;51545;51.568;6.998;2023-03-31T06:18:42;10.73;93.37
64997;SHT31;51545;51.568;6.998;2023-03-31T06:21:09;10.79;92.73
64997;SHT31;51545;51.568;6.998;2023-03-31T06:23:37;10.76;92.98
64997;SHT31;51545;51.568;6.998;2023-03-31T06:26:03;10.81;92.88
64997;SHT31;51545;51.568;6.998;2023-03-31T06:28:31;10.76;92.67
64997;SHT31;51545;51.568;6.998;2023-03-31T06:31:00;10.72;92.68
64997;SHT31;51545;51.568;6.998;2023-03-31T06:33:30;10.72;93.47
64997;SHT31;51545;51.568;6.998;2023-03-31T06:35:57;10.66;93.92
64997;SHT31;51545;51.568;6.998;2023-03-31T06:38:24;10.70;94.22
64997;SHT31;51545;51.568;6.998;2023-03-31T06:40:50;10.67;94.43
64997;SHT31;51545;51.568;6.998;2023-03-31T06:43:15;10.72;94.29
64997;SHT31;51545;51.568;6.998;2023-03-31T06:45:41;10.63;94.33
64997;SHT31;51545;51.568;6.998;2023-03-31T06:48:06;10.60;94.89
64997;SHT31;51545;51.568;6.998;2023-03-31T06:50:32;10.52;95.16
64997;SHT31;51545;51.568;6.998;2023-03-31T06:52:57;10.56;95.42
64997;SHT31;51545;51.568;6.998;2023-03-31T06:55:24;10.48;95.60
64997;SHT31;51545;51.568;6.998;2023-03-31T06:57:49;10.50;96.04
64997;SHT31;51545;51.568;6.998;2023-03-31T07:00:15;10.45;95.96
64997;SHT31;51545;51.568;6.998;2023-03-31T07:02:41;10.46;96.16
64997;SHT31;51545;51.568;6.998;2023-03-31T07:05:07;10.42;96.64
64997;SHT31;51545;51.568;6.998;2023-03-31T07:07:32;10.39;96.40
64997;SHT31;51545;51.568;6.998;2023-03-31T07:09:58;10.43;96.98
64997;SHT31;51545;51.568;6.998;2023-03-31T07:12:24;10.57;96.81
64997;SHT31;51545;51.568;6.998;2023-03-31T07:14:52;10.50;96.94
64997;SHT31;51545;51.568;6.998;2023-03-31T07:17:17;10.49;96.99
64997;SHT31;51545;51.568;6.998;2023-03-31T07:19:43;10.40;97.07
64997;SHT31;51545;51.568;6.998;2023-03-31T07:22:12;10.39;97.32
64997;SHT31;51545;51.568;6.998;2023-03-31T07:24:39;10.35;97.70
64997;SHT31;51545;51.568;6.998;2023-03-31T07:27:04;10.26;97.42
64997;SHT31;51545;51.568;6.998;2023-03-31T07:29:30;10.28;97.78
64997;SHT31;51545;51.568;6.998;2023-03-31T07:31:55;10.22;97.86
64997;SHT31;51545;51.568;6.998;2023-03-31T07:34:21;10.25;98.06
64997;SHT31;51545;51.568;6.998;2023-03-31T07:36:46;10.24;97.98
64997;SHT31;51545;51.568;6.998;2023-03-31T07:39:12;10.20;98.21
64997;SHT31;51545;51.568;6.998;2023-03-31T07:41:37;10.15;98.42
64997;SHT31;51545;51.568;6.998;2023-03-31T07:44:03;10.17;98.48
64997;SHT31;51545;51.568;6.998;2023-03-31T07:46:28;10.15;98.48
64997;SHT31;51545;51.568;6.998;2023-03-31T07:48:55;10.18;98.60
64997;SHT31;51545;51.568;6.998;2023-03-31T07:51:23;10.17;98.58
64997;SHT31;51545;51.568;6.998;2023-03-31T07:53:50;10.24;98.57
64997;SHT31;51545;51.568;6.998;2023-03-31T07:56:17;10.22;98.42
64997;SHT31;51545;51.568;6.998;2023-03-31T07:58:44;10.24;98.51
64997;SHT31;51545;51.568;6.998;2023-03-31T08:01:12;10.33;98.80
64997;SHT31;51545;51.568;6.998;2023-03-31T08:03:41;10.32;98.85
64997;SHT31;51545;51.568;6.998;2023-03-31T08:06:06;10.29;99.09
64997;SHT31;51545;51.568;6.998;2023-03-31T08:08:32;10.28;99.01
64997;SHT31;51545;51.568;6.998;2023-03-31T08:10:57;10.28;98.95
64997;SHT31;51545;51.568;6.998;2023-03-31T08:13:23;10.14;98.90
64997;SHT31;51545;51.568;6.998;2023-03-31T08:15:48;10.18;99.35
64997;SHT31;51545;51.568;6.998;2023-03-31T08:18:14;10.21;99.12
64997;SHT31;51545;51.568;6.998;2023-03-31T08:20:40;10.14;99.07
64997;SHT31;51545;51.568;6.998;2023-03-31T08:23:06;10.20;99.18
64997;SHT31;51545;51.568;6.998;2023-03-31T08:25:33;10.21;98.94
64997;SHT31;51545;51.568;6.998;2023-03-31T08:27:58;10.32;99.04
64997;SHT31;51545;51.568;6.998;2023-03-31T08:30:24;10.39;98.85
64997;SHT31;51545;51.568;6.998;2023-03-31T08:32:50;10.42;98.60
64997;SHT31;51545;51.568;6.998;2023-03-31T08:35:15;10.39;97.88
64997;SHT31;51545;51.568;6.998;2023-03-31T08:37:41;10.59;98.38
64997;SHT31;51545;51.568;6.998;2023-03-31T08:40:07;10.53;97.64
64997;SHT31;51545;51.568;6.998;2023-03-31T08:42:42;10.57;97.06
64997;SHT31;51545;51.568;6.998;2023-03-31T08:45:21;10.76;97.28
64997;SHT31;51545;51.568;6.998;2023-03-31T08:47:52;10.76;96.27
64997;SHT31;51545;51.568;6.998;2023-03-31T08:50:27;10.84;96.53
64997;SHT31;51545;51.568;6.998;2023-03-31T08:56:06;10.88;96.78
64997;SHT31;51545;51.568;6.998;2023-03-31T08:58:43;10.90;96.90
64997;SHT31;51545;51.568;6.998;2023-03-31T09:06:35;10.86;96.49
64997;SHT31;51545;51.568;6.998;2023-03-31T09:09:04;10.86;96.59
64997;SHT31;51545;51.568;6.998;2023-03-31T09:11:35;10.93;96.98
64997;SHT31;51545;51.568;6.998;2023-03-31T09:14:16;10.94;96.92
64997;SHT31;51545;51.568;6.998;2023-03-31T09:22:16;10.98;96.48
64997;SHT31;51545;51.568;6.998;2023-03-31T09:27:27;11.03;96.64
64997;SHT31;51545;51.568;6.998;2023-03-31T09:30:09;11.00;96.43
64997;SHT31;51545;51.568;6.998;2023-03-31T09:32:37;11.01;97.01
64997;SHT31;51545;51.568;6.998;2023-03-31T09:37:49;10.95;96.58
64997;SHT31;51545;51.568;6.998;2023-03-31T09:40:20;11.01;96.83
64997;SHT31;51545;51.568;6.998;2023-03-31T09:42:49;11.01;96.97
64997;SHT31;51545;51.568;6.998;2023-03-31T09:45:20;11.05;97.25
64997;SHT31;51545;51.568;6.998;2023-03-31T09:47:46;11.01;96.81
64997;SHT31;51545;51.568;6.998;2023-03-31T09:50:16;11.14;96.99
64997;SHT31;51545;51.568;6.998;2023-03-31T09:52:43;11.18;97.01
64997;SHT31;51545;51.568;6.998;2023-03-31T09:55:20;11.32;97.21
64997;SHT31;51545;51.568;6.998;2023-03-31T09:57:52;11.40;96.50
64997;SHT31;51545;51.568;6.998;2023-03-31T10:00:19;11.39;96.16
64997;SHT31;51545;51.568;6.998;2023-03-31T10:02:49;11.59;96.18
64997;SHT31;51545;51.568;6.998;2023-03-31T10:05:32;11.73;96.49
64997;SHT31;51545;51.568;6.998;2023-03-31T10:10:36;12.20;96.06
64997;SHT31;51545;51.568;6.998;2023-03-31T10:13:06;12.45;95.94
64997;SHT31;51545;51.568;6.998;2023-03-31T10:15:37;12.42;94.17
64997;SHT31;51545;51.568;6.998;2023-03-31T10:18:03;12.64;93.41
64997;SHT31;51545;51.568;6.998;2023-03-31T10:23:01;12.90;92.85
64997;SHT31;51545;51.568;6.998;2023-03-31T10:25:31;12.93;92.05
64997;SHT31;51545;51.568;6.998;2023-03-31T10:27:57;12.85;92.84
64997;SHT31;51545;51.568;6.998;2023-03-31T10:30:27;13.00;92.82
64997;SHT31;51545;51.568;6.998;2023-03-31T10:32:59;12.61;93.26
64997;SHT31;51545;51.568;6.998;2023-03-31T10:35:31;12.14;92.47
64997;SHT31;51545;51.568;6.998;2023-03-31T10:38:00;12.05;93.48
64997;SHT31;51545;51.568;6.998;2023-03-31T10:40:29;12.15;93.39
64997;SHT31;51545;51.568;6.998;2023-03-31T10:42:59;12.40;93.01
64997;SHT31;51545;51.568;6.998;2023-03-31T10:45:36;12.52;91.62
64997;SHT31;51545;51.568;6.998;2023-03-31T10:48:35;12.63;91.74
64997;SHT31;51545;51.568;6.998;2023-03-31T10:51:05;13.04;91.85
64997;SHT31;51545;51.568;6.998;2023-03-31T10:53:40;12.97;90.15
64997;SHT31;51545;51.568;6.998;2023-03-31T10:58:43;13.38;90.92
64997;SHT31;51545;51.568;6.998;2023-03-31T11:01:21;13.84;88.51
64997;SHT31;51545;51.568;6.998;2023-03-31T11:06:32;14.06;88.23
64997;SHT31;51545;51.568;6.998;2023-03-31T11:12:15;13.26;88.20
64997;SHT31;51545;51.568;6.998;2023-03-31T11:21:00;13.10;88.37
64997;SHT31;51545;51.568;6.998;2023-03-31T11:31:17;12.95;84.42
64997;SHT31;51545;51.568;6.998;2023-03-31T11:34:05;13.03;84.59
64997;SHT31;51545;51.568;6.998;2023-03-31T11:39:46;13.54;82.58
64997;SHT31;51545;51.568;6.998;2023-03-31T11:42:36;13.44;81.99
64997;SHT31;51545;51.568;6.998;2023-03-31T11:45:30;13.57;80.12
64997;SHT31;51545;51.568;6.998;2023-03-31T11:48:17;13.83;80.91
64997;SHT31;51545;51.568;6.998;2023-03-31T11:50:53;13.93;78.99
64997;SHT31;51545;51.568;6.998;2023-03-31T11:53:23;14.08;79.54
64997;SHT31;51545;51.568;6.998;2023-03-31T11:55:54;13.52;78.26
64997;SHT31;51545;51.568;6.998;2023-03-31T11:58:23;13.57;79.25
64997;SHT31;51545;51.568;6.998;2023-03-31T12:03:43;13.67;77.77
64997;SHT31;51545;51.568;6.998;2023-03-31T12:06:25;13.63;79.01
64997;SHT31;51545;51.568;6.998;2023-03-31T12:12:19;13.47;77.94
64997;SHT31;51545;51.568;6.998;2023-03-31T12:17:24;13.39;78.12
64997;SHT31;51545;51.568;6.998;2023-03-31T12:19:57;13.35;77.95
64997;SHT31;51545;51.568;6.998;2023-03-31T12:22:46;13.42;78.32
64997;SHT31;51545;51.568;6.998;2023-03-31T12:25:13;13.38;78.18
64997;SHT31;51545;51.568;6.998;2023-03-31T12:27:40;13.40;78.59
64997;SHT31;51545;51.568;6.998;2023-03-31T12:30:09;13.39;78.59
64997;SHT31;51545;51.568;6.998;2023-03-31T12:32:43;13.46;79.06
64997;SHT31;51545;51.568;6.998;2023-03-31T12:47:02;13.23;80.47
64997;SHT31;51545;51.568;6.998;2023-03-31T12:52:26;13.47;79.58
64997;SHT31;51545;51.568;6.998;2023-03-31T12:55:09;13.40;80.48
64997;SHT31;51545;51.568;6.998;2023-03-31T12:57:52;13.61;79.74
64997;SHT31;51545;51.568;6.998;2023-03-31T13:03:46;13.93;78.99
64997;SHT31;51545;51.568;6.998;2023-03-31T13:11:49;13.98;77.89
64997;SHT31;51545;51.568;6.998;2023-03-31T13:14:16;14.25;77.08
64997;SHT31;51545;51.568;6.998;2023-03-31T13:16:46;14.14;78.17
64997;SHT31;51545;51.568;6.998;2023-03-31T13:19:26;14.18;77.55
64997;SHT31;51545;51.568;6.998;2023-03-31T13:22:00;14.09;77.96
64997;SHT31;51545;51.568;6.998;2023-03-31T13:24:27;13.93;77.59
64997;SHT31;51545;51.568;6.998;2023-03-31T13:26:55;13.95;77.38
64997;SHT31;51545;51.568;6.998;2023-03-31T13:32:05;14.06;77.99
64997;SHT31;51545;51.568;6.998;2023-03-31T13:37:23;13.81;78.88
64997;SHT31;51545;51.568;6.998;2023-03-31T13:48:54;13.98;76.30
64997;SHT31;51545;51.568;6.998;2023-03-31T14:02:42;14.37;73.47
64997;SHT31;51545;51.568;6.998;2023-03-31T14:05:16;14.40;72.38
64997;SHT31;51545;51.568;6.998;2023-03-31T14:08:18;14.46;71.92
64997;SHT31;51545;51.568;6.998;2023-03-31T14:10:53;14.43;71.26
64997;SHT31;51545;51.568;6.998;2023-03-31T14:13:39;14.63;71.96
64997;SHT31;51545;51.568;6.998;2023-03-31T14:16:04;14.70;71.77
64997;SHT31;51545;51.568;6.998;2023-03-31T14:18:31;14.73;70.91
64997;SHT31;51545;51.568;6.998;2023-03-31T14:37:19;14.42;70.44
64997;SHT31;51545;51.568;6.998;2023-03-31T14:39:47;14.36;70.92
64997;SHT31;51545;51.568;6.998;2023-03-31T14:42:17;14.28;71.99
64997;SHT31;51545;51.568;6.998;2023-03-31T14:44:45;14.22;72.58
64997;SHT31;51545;51.568;6.998;2023-03-31T14:47:33;14.14;73.60
64997;SHT31;51545;51.568;6.998;2023-03-31T14:50:01;14.01;74.50
64997;SHT31;51545;51.568;6.998;2023-03-31T14:52:33;13.86;75.60
64997;SHT31;51545;51.568;6.998;2023-03-31T14:54:59;13.64;77.35
64997;SHT31;51545;51.568;6.998;2023-03-31T14:57:35;12.73;83.97
64997;SHT31;51545;51.568;6.998;2023-03-31T15:00:05;12.24;88.29
64997;SHT31;51545;51.568;6.998;2023-03-31T15:02:36;11.90;89.85
64997;SHT31;51545;51.568;6.998;2023-03-31T15:05:07;11.80;90.37
64997;SHT31;51545;51.568;6.998;2023-03-31T15:07:35;12.11;91.69
64997;SHT31;51545;51.568;6.998;2023-03-31T15:10:01;12.33;92.03
64997;SHT31;51545;51.568;6.998;2023-03-31T15:12:29;12.02;89.73
64997;SHT31;51545;51.568;6.998;2023-03-31T15:15:04;12.06;90.95
64997;SHT31;51545;51.568;6.998;2023-03-31T15:17:34;12.18;91.53
64997;SHT31;51545;51.568;6.998;2023-03-31T15:23:17;12.18;91.32
64997;SHT31;51545;51.568;6.998;2023-03-31T15:25:54;12.08;90.37
64997;SHT31;51545;51.568;6.998;2023-03-31T15:28:23;12.05;90.73
64997;SHT31;51545;51.568;6.998;2023-03-31T15:30:54;12.09;90.54
64997;SHT31;51545;51.568;6.998;2023-03-31T15:33:27;12.32;90.61
64997;SHT31;51545;51.568;6.998;2023-03-31T15:35:57;12.35;90.21
64997;SHT31;51545;51.568;6.998;2023-03-31T15:38:23;12.61;88.61
64997;SHT31;51545;51.568;6.998;2023-03-31T15:40:53;12.56;87.14
64997;SHT31;51545;51.568;6.998;2023-03-31T15:43:28;12.59;87.26
64997;SHT31;51545;51.568;6.998;2023-03-31T15:46:10;12.50;87.24
64997;SHT31;51545;51.568;6.998;2023-03-31T15:48:48;12.56;87.53
64997;SHT31;51545;51.568;6.998;2023-03-31T15:51:21;12.43;86.16
64997;SHT31;51545;51.568;6.998;2023-03-31T15:53:53;12.42;85.72
64997;SHT31;51545;51.568;6.998;2023-03-31T15:56:36;12.33;85.63
64997;SHT31;51545;51.568;6.998;2023-03-31T15:59:22;12.35;84.99
64997;SHT31;51545;51.568;6.998;2023-03-31T16:01:49;12.29;84.54
64997;SHT31;51545;51.568;6.998;2023-03-31T16:04:18;12.35;84.75
64997;SHT31;51545;51.568;6.998;2023-03-31T16:06:45;12.33;84.86
64997;SHT31;51545;51.568;6.998;2023-03-31T16:09:19;12.36;84.21
64997;SHT31;51545;51.568;6.998;2023-03-31T16:11:55;12.38;83.93
64997;SHT31;51545;51.568;6.998;2023-03-31T16:14:31;12.31;84.78
64997;SHT31;51545;51.568;6.998;2023-03-31T16:17:07;12.38;85.03
64997;SHT31;51545;51.568;6.998;2023-03-31T16:19:42;12.36;85.46
64997;SHT31;51545;51.568;6.998;2023-03-31T16:22:18;12.31;84.66
64997;SHT31;51545;51.568;6.998;2023-03-31T16:24:46;12.36;83.75
64997;SHT31;51545;51.568;6.998;2023-03-31T16:27:12;12.35;83.63
64997;SHT31;51545;51.568;6.998;2023-03-31T16:29:38;12.40;83.97
64997;SHT31;51545;51.568;6.998;2023-03-31T16:34:50;12.38;83.27
64997;SHT31;51545;51.568;6.998;2023-03-31T16:37:23;12.33;83.51
64997;SHT31;51545;51.568;6.998;2023-03-31T16:39:49;12.22;83.93
64997;SHT31;51545;51.568;6.998;2023-03-31T16:42:15;12.24;84.87
64997;SHT31;51545;51.568;6.998;2023-03-31T16:44:41;12.15;85.55
64997;SHT31;51545;51.568;6.998;2023-03-31T16:47:06;11.98;86.23
64997;SHT31;51545;51.568;6.998;2023-03-31T16:49:31;11.98;87.61
64997;SHT31;51545;51.568;6.998;2023-03-31T16:51:57;11.83;87.81
64997;SHT31;51545;51.568;6.998;2023-03-31T16:54:22;11.73;88.98
64997;SHT31;51545;51.568;6.998;2023-03-31T16:56:48;11.71;89.82
64997;SHT31;51545;51.568;6.998;2023-03-31T16:59:14;11.65;89.00
64997;SHT31;51545;51.568;6.998;2023-03-31T17:01:39;11.67;89.58
64997;SHT31;51545;51.568;6.998;2023-03-31T17:04:05;11.59;89.23
64997;SHT31;51545;51.568;6.998;2023-03-31T17:06:31;11.58;89.32
64997;SHT31;51545;51.568;6.998;2023-03-31T17:08:56;11.53;89.90
64997;SHT31;51545;51.568;6.998;2023-03-31T17:11:22;11.53;90.05
64997;SHT31;51545;51.568;6.998;2023-03-31T17:13:47;11.42;90.08
64997;SHT31;51545;51.568;6.998;2023-03-31T17:16:13;11.43;90.77
64997;SHT31;51545;51.568;6.998;2023-03-31T17:18:39;11.42;91.23
64997;SHT31;51545;51.568;6.998;2023-03-31T17:21:06;11.28;91.37
64997;SHT31;51545;51.568;6.998;2023-03-31T17:23:33;11.22;91.92
64997;SHT31;51545;51.568;6.998;2023-03-31T17:26:00;11.18;92.13
64997;SHT31;51545;51.568;6.998;2023-03-31T17:28:26;11.16;92.29
64997;SHT31;51545;51.568;6.998;2023-03-31T17:30:52;11.15;92.64
64997;SHT31;51545;51.568;6.998;2023-03-31T17:33:18;11.16;93.04
64997;SHT31;51545;51.568;6.998;2023-03-31T17:35:43;11.15;93.28
64997;SHT31;51545;51.568;6.998;2023-03-31T17:38:09;11.10;93.56
64997;SHT31;51545;51.568;6.998;2023-03-31T17:40:38;11.05;93.82
64997;SHT31;51545;51.568;6.998;2023-03-31T17:43:04;11.01;94.20
64997;SHT31;51545;51.568;6.998;2023-03-31T17:45:30;11.04;93.78
64997;SHT31;51545;51.568;6.998;2023-03-31T17:47:56;10.91;94.21
64997;SHT31;51545;51.568;6.998;2023-03-31T17:50:23;10.93;94.67
64997;SHT31;51545;51.568;6.998;2023-03-31T17:52:49;10.86;94.45
64997;SHT31;51545;51.568;6.998;2023-03-31T17:55:14;10.84;95.22
64997;SHT31;51545;51.568;6.998;2023-03-31T17:57:41;10.79;95.50
64997;SHT31;51545;51.568;6.998;2023-03-31T18:00:06;10.76;95.78
64997;SHT31;51545;51.568;6.998;2023-03-31T18:02:36;10.76;95.79
64997;SHT31;51545;51.568;6.998;2023-03-31T18:05:03;10.72;96.01
64997;SHT31;51545;51.568;6.998;2023-03-31T18:07:31;10.67;96.00
64997;SHT31;51545;51.568;6.998;2023-03-31T18:09:57;10.67;96.06
64997;SHT31;51545;51.568;6.998;2023-03-31T18:12:23;10.69;96.27
64997;SHT31;51545;51.568;6.998;2023-03-31T18:14:48;10.65;96.24
64997;SHT31;51545;51.568;6.998;2023-03-31T18:17:15;10.65;96.32
64997;SHT31;51545;51.568;6.998;2023-03-31T18:19:41;10.63;96.49
64997;SHT31;51545;51.568;6.998;2023-03-31T18:22:07;10.67;96.76
64997;SHT31;51545;51.568;6.998;2023-03-31T18:24:34;10.63;96.47
64997;SHT31;51545;51.568;6.998;2023-03-31T18:27:02;10.62;96.59
64997;SHT31;51545;51.568;6.998;2023-03-31T18:29:28;10.65;96.44
64997;SHT31;51545;51.568;6.998;2023-03-31T18:31:53;10.60;96.55
64997;SHT31;51545;51.568;6.998;2023-03-31T18:34:19;10.62;96.46
64997;SHT31;51545;51.568;6.998;2023-03-31T18:36:44;10.59;96.25